Time,TemperatureF,DewpointF,PressureIn,WindDirection,WindDirectionDegrees,WindSpeedMPH,WindSpeedGustMPH,Humidity,HourlyPrecipIn,Conditions,Clouds,dailyrainin,SoftwareType,DateUTC
2013-08-20 00:00:00,64.2,60.9,29.92,SSW,206,0.0,0.0,89,0.00,,,0.00,Wunderground v.1.13,2013-08-20 05:00:00,
2013-08-20 00:05:00,64.2,60.9,29.92,SSW,206,0.0,0.0,89,0.00,,,0.00,Wunderground v.1.13,2013-08-20 05:05:00,
2013-08-20 00:15:00,63.9,60.9,29.92,SSW,206,0.0,0.0,90,0.00,,,0.00,Wunderground v.1.13,2013-08-20 05:15:00,
2013-08-20 00:20:00,63.9,60.9,29.92,SSW,206,0.0,0.0,90,0.00,,,0.00,Wunderground v.1.13,2013-08-20 05:20:00,
2013-08-20 00:25:00,63.9,60.9,29.92,SSW,206,0.0,0.0,90,0.00,,,0.00,Wunderground v.1.13,2013-08-20 05:25:00,
2013-08-20 00:35:00,63.5,60.8,29.92,SSW,206,0.0,0.0,91,0.00,,,0.00,Wunderground v.1.13,2013-08-20 05:35:00,
2013-08-20 00:45:00,63.5,61.1,29.93,SSW,206,0.0,0.0,92,0.00,,,0.00,Wunderground v.1.13,2013-08-20 05:45:00,
2013-08-20 00:50:00,63.5,61.1,29.93,SSW,206,0.0,0.0,92,0.00,,,0.00,Wunderground v.1.13,2013-08-20 05:50:00,
2013-08-20 01:00:00,63.4,61.0,29.93,SSW,206,0.0,0.0,92,0.00,,,0.00,Wunderground v.1.13,2013-08-20 06:00:00,
2013-08-20 01:05:00,63.2,60.8,29.93,SSW,206,0.0,0.0,92,0.00,,,0.00,Wunderground v.1.13,2013-08-20 06:05:00,
2013-08-20 01:15:00,63.2,60.8,29.93,SSW,206,0.0,0.0,92,0.00,,,0.00,Wunderground v.1.13,2013-08-20 06:15:00,
2013-08-20 01:25:00,63.1,61.0,29.93,SSW,206,0.0,0.0,93,0.00,,,0.00,Wunderground v.1.13,2013-08-20 06:25:00,
2013-08-20 01:30:00,63.1,61.0,29.93,SSW,206,0.0,0.0,93,0.00,,,0.00,Wunderground v.1.13,2013-08-20 06:30:00,
2013-08-20 01:40:00,62.9,60.8,29.93,SSW,206,0.0,0.0,93,0.00,,,0.00,Wunderground v.1.13,2013-08-20 06:40:00,
2013-08-20 01:50:00,62.9,60.8,29.93,SSW,206,0.0,0.0,93,0.00,,,0.00,Wunderground v.1.13,2013-08-20 06:50:00,
2013-08-20 02:00:00,62.7,60.9,29.93,SSW,206,0.0,0.0,94,0.00,,,0.00,Wunderground v.1.13,2013-08-20 07:00:00,
2013-08-20 02:05:00,62.7,60.9,29.93,SSW,206,0.0,0.0,94,0.00,,,0.00,Wunderground v.1.13,2013-08-20 07:05:00,
2013-08-20 02:15:00,62.7,60.9,29.93,SSW,206,0.0,0.0,94,0.00,,,0.00,Wunderground v.1.13,2013-08-20 07:15:00,
2013-08-20 02:20:00,62.6,60.8,29.93,SSW,206,0.0,0.0,94,0.00,,,0.00,Wunderground v.1.13,2013-08-20 07:20:00,
2013-08-20 02:25:00,62.7,60.9,29.93,SSW,206,0.0,0.0,94,0.00,,,0.00,Wunderground v.1.13,2013-08-20 07:25:00,
2013-08-20 02:35:00,62.9,61.1,29.93,SSW,206,0.0,0.0,94,0.00,,,0.00,Wunderground v.1.13,2013-08-20 07:35:00,
2013-08-20 02:40:00,62.7,60.9,29.93,SSW,206,0.0,0.0,94,0.00,,,0.00,Wunderground v.1.13,2013-08-20 07:40:00,
2013-08-20 02:45:00,62.7,60.9,29.93,SSW,206,0.0,0.0,94,0.00,,,0.00,Wunderground v.1.13,2013-08-20 07:45:00,
2013-08-20 02:55:00,62.7,60.9,29.93,SSW,206,0.0,0.0,94,0.00,,,0.00,Wunderground v.1.13,2013-08-20 07:55:00,
2013-08-20 03:00:00,62.7,61.2,29.93,SSW,206,0.0,0.0,95,0.00,,,0.00,Wunderground v.1.13,2013-08-20 08:00:00,
2013-08-20 03:05:00,62.9,61.4,29.93,SSW,206,0.0,0.0,95,0.00,,,0.00,Wunderground v.1.13,2013-08-20 08:05:00,
2013-08-20 03:15:00,63.2,61.7,29.94,SSW,206,0.0,0.0,95,0.00,,,0.00,Wunderground v.1.13,2013-08-20 08:15:00,
2013-08-20 03:20:00,63.2,61.7,29.94,SSW,206,0.0,0.0,95,0.00,,,0.00,Wunderground v.1.13,2013-08-20 08:20:00,
2013-08-20 03:30:00,63.2,61.7,29.94,SSW,206,0.0,0.0,95,0.00,,,0.00,Wunderground v.1.13,2013-08-20 08:30:00,
2013-08-20 03:40:00,63.2,61.7,29.94,SSW,206,0.0,0.0,95,0.00,,,0.00,Wunderground v.1.13,2013-08-20 08:40:00,
2013-08-20 03:45:00,63.2,61.7,29.94,SSW,206,0.0,0.0,95,0.00,,,0.00,Wunderground v.1.13,2013-08-20 08:45:00,
2013-08-20 03:55:00,63.4,61.6,29.94,SSW,206,0.0,0.0,94,0.00,,,0.00,Wunderground v.1.13,2013-08-20 08:55:00,
2013-08-20 04:05:00,63.4,61.6,29.94,SSW,206,0.0,0.0,94,0.00,,,0.00,Wunderground v.1.13,2013-08-20 09:05:00,
2013-08-20 04:15:00,63.5,61.7,29.94,SSW,206,0.0,0.0,94,0.00,,,0.00,Wunderground v.1.13,2013-08-20 09:15:00,
2013-08-20 04:20:00,63.5,61.7,29.94,SSW,206,0.0,0.0,94,0.00,,,0.00,Wunderground v.1.13,2013-08-20 09:20:00,
2013-08-20 04:30:00,63.4,61.6,29.94,SSW,206,0.0,0.0,94,0.00,,,0.00,Wunderground v.1.13,2013-08-20 09:30:00,
2013-08-20 04:35:00,63.2,61.4,29.94,SSW,206,0.0,0.0,94,0.00,,,0.00,Wunderground v.1.13,2013-08-20 09:35:00,
2013-08-20 04:45:00,62.9,61.1,29.94,SSW,206,0.0,0.0,94,0.00,,,0.00,Wunderground v.1.13,2013-08-20 09:45:00,
2013-08-20 04:50:00,62.9,61.1,29.94,SSW,206,0.0,0.0,94,0.00,,,0.00,Wunderground v.1.13,2013-08-20 09:50:00,
2013-08-20 04:55:00,62.7,60.9,29.94,SSW,206,0.0,0.0,94,0.00,,,0.00,Wunderground v.1.13,2013-08-20 09:55:00,
2013-08-20 05:00:00,62.6,60.8,29.94,SSW,206,0.0,0.0,94,0.00,,,0.00,Wunderground v.1.13,2013-08-20 10:00:00,
2013-08-20 05:05:00,62.6,60.8,29.94,SSW,206,0.0,0.0,94,0.00,,,0.00,Wunderground v.1.13,2013-08-20 10:05:00,
2013-08-20 05:15:00,62.7,60.9,29.94,SSW,206,0.0,0.0,94,0.00,,,0.00,Wunderground v.1.13,2013-08-20 10:15:00,
2013-08-20 05:25:00,62.6,60.8,29.94,SSW,206,0.0,0.0,94,0.00,,,0.00,Wunderground v.1.13,2013-08-20 10:25:00,
2013-08-20 05:30:00,62.4,60.7,29.95,SSW,206,0.0,0.0,94,0.00,,,0.00,Wunderground v.1.13,2013-08-20 10:30:00,
2013-08-20 05:35:00,62.4,60.7,29.95,SSW,206,0.0,0.0,94,0.00,,,0.00,Wunderground v.1.13,2013-08-20 10:35:00,
2013-08-20 05:45:00,62.1,60.7,29.95,SSW,206,0.0,0.0,95,0.00,,,0.00,Wunderground v.1.13,2013-08-20 10:45:00,
2013-08-20 05:50:00,62.1,60.7,29.95,SSW,206,0.0,0.0,95,0.00,,,0.00,Wunderground v.1.13,2013-08-20 10:50:00,
2013-08-20 06:00:00,61.8,60.4,29.96,SSW,206,0.0,0.0,95,0.00,,,0.00,Wunderground v.1.13,2013-08-20 11:00:00,
2013-08-20 06:05:00,61.8,60.4,29.96,SSW,206,0.0,0.0,95,0.00,,,0.00,Wunderground v.1.13,2013-08-20 11:05:00,
2013-08-20 06:15:00,61.6,60.2,29.96,SSW,206,0.0,0.0,95,0.00,,,0.00,Wunderground v.1.13,2013-08-20 11:15:00,
2013-08-20 06:25:00,61.8,60.4,29.96,SSW,206,0.0,0.0,95,0.00,,,0.00,Wunderground v.1.13,2013-08-20 11:25:00,
2013-08-20 06:35:00,61.8,60.4,29.97,SSW,206,0.0,0.0,95,0.00,,,0.00,Wunderground v.1.13,2013-08-20 11:35:00,
2013-08-20 06:40:00,62.0,60.6,29.97,SSW,206,0.0,0.0,95,0.00,,,0.00,Wunderground v.1.13,2013-08-20 11:40:00,
2013-08-20 06:45:00,62.0,60.6,29.97,SSW,206,0.0,0.0,95,0.00,,,0.00,Wunderground v.1.13,2013-08-20 11:45:00,
2013-08-20 06:55:00,62.3,61.1,29.97,SSW,206,0.0,0.0,96,0.00,,,0.00,Wunderground v.1.13,2013-08-20 11:55:00,
2013-08-20 07:00:00,62.3,61.1,29.98,SSW,206,0.0,0.0,96,0.00,,,0.00,Wunderground v.1.13,2013-08-20 12:00:00,
2013-08-20 07:05:00,62.4,61.2,29.98,SSW,206,0.0,0.0,96,0.00,,,0.00,Wunderground v.1.13,2013-08-20 12:05:00,
2013-08-20 07:15:00,62.9,61.7,29.98,SSW,206,0.0,0.0,96,0.00,,,0.00,Wunderground v.1.13,2013-08-20 12:15:00,
2013-08-20 07:25:00,63.2,62.0,29.98,SSW,206,0.0,0.0,96,0.00,,,0.00,Wunderground v.1.13,2013-08-20 12:25:00,
2013-08-20 07:35:00,63.7,62.5,29.98,SSW,206,0.0,0.0,96,0.00,,,0.00,Wunderground v.1.13,2013-08-20 12:35:00,
2013-08-20 07:40:00,64.0,62.8,29.98,SSW,206,0.0,0.0,96,0.00,,,0.00,Wunderground v.1.13,2013-08-20 12:40:00,
2013-08-20 07:45:00,64.3,63.1,29.98,SSW,206,0.0,0.0,96,0.00,,,0.00,Wunderground v.1.13,2013-08-20 12:45:00,
2013-08-20 07:55:00,65.2,63.7,29.98,SSW,206,0.0,0.0,95,0.00,,,0.00,Wunderground v.1.13,2013-08-20 12:55:00,
2013-08-20 08:00:00,65.5,64.0,29.98,SSW,206,0.0,0.0,95,0.00,,,0.00,Wunderground v.1.13,2013-08-20 13:00:00,
2013-08-20 08:05:00,66.0,64.2,29.98,SSW,206,0.0,0.0,94,0.00,,,0.00,Wunderground v.1.13,2013-08-20 13:05:00,
2013-08-20 08:15:00,66.8,64.7,29.98,SSW,206,0.0,0.0,93,0.00,,,0.00,Wunderground v.1.13,2013-08-20 13:15:00,
2013-08-20 08:25:00,67.6,65.2,29.98,SSW,206,0.0,0.0,92,0.00,,,0.00,Wunderground v.1.13,2013-08-20 13:25:00,
2013-08-20 08:30:00,68.3,65.6,29.99,SSW,206,0.0,0.0,91,0.00,,,0.00,Wunderground v.1.13,2013-08-20 13:30:00,
2013-08-20 08:35:00,68.9,65.5,29.99,SSW,203,1.0,5.0,89,0.00,,,0.00,Wunderground v.1.13,2013-08-20 13:35:00,
2013-08-20 08:40:00,69.6,65.6,29.99,SSW,193,2.0,2.0,87,0.00,,,0.00,Wunderground v.1.13,2013-08-20 13:40:00,
2013-08-20 08:45:00,70.3,65.2,29.98,South,188,2.0,9.0,84,0.00,,,0.00,Wunderground v.1.13,2013-08-20 13:45:00,
2013-08-20 08:55:00,71.8,66.0,29.98,South,190,2.0,2.0,82,0.00,,,0.00,Wunderground v.1.13,2013-08-20 13:55:00,
2013-08-20 09:10:00,73.5,65.8,29.98,SW,215,2.0,2.0,77,0.00,,,0.00,Wunderground v.1.13,2013-08-20 14:10:00,
2013-08-20 09:20:00,74.4,65.6,29.98,SSW,198,2.0,2.0,74,0.00,,,0.00,Wunderground v.1.13,2013-08-20 14:20:00,
2013-08-20 09:25:00,74.7,65.9,29.98,SSE,161,1.0,1.0,74,0.00,,,0.00,Wunderground v.1.13,2013-08-20 14:25:00,
2013-08-20 09:35:00,75.3,65.2,29.98,SSE,167,2.0,2.0,71,0.00,,,0.00,Wunderground v.1.13,2013-08-20 14:35:00,
2013-08-20 09:45:00,76.0,65.9,29.98,South,180,2.0,2.0,71,0.00,,,0.00,Wunderground v.1.13,2013-08-20 14:45:00,
2013-08-20 09:50:00,76.3,65.8,29.98,SSE,157,2.0,9.0,70,0.00,,,0.00,Wunderground v.1.13,2013-08-20 14:50:00,
2013-08-20 10:00:00,76.5,66.0,29.98,SSW,209,3.0,9.0,70,0.00,,,0.00,Wunderground v.1.13,2013-08-20 15:00:00,
2013-08-20 10:05:00,76.7,65.8,29.98,SSW,201,3.0,3.0,69,0.00,,,0.00,Wunderground v.1.13,2013-08-20 15:05:00,
2013-08-20 10:15:00,77.4,66.4,29.98,South,182,2.0,2.0,69,0.00,,,0.00,Wunderground v.1.13,2013-08-20 15:15:00,
2013-08-20 10:25:00,78.5,66.2,29.98,SSW,206,1.0,1.0,66,0.00,,,0.00,Wunderground v.1.13,2013-08-20 15:25:00,
2013-08-20 10:35:00,79.2,66.9,29.97,South,182,2.0,10.0,66,0.00,,,0.00,Wunderground v.1.13,2013-08-20 15:35:00,
2013-08-20 10:40:00,79.6,65.9,29.97,SSW,202,2.0,10.0,63,0.00,,,0.00,Wunderground v.1.13,2013-08-20 15:40:00,
2013-08-20 10:45:00,79.6,65.4,29.97,SSW,197,3.0,10.0,62,0.00,,,0.00,Wunderground v.1.13,2013-08-20 15:45:00,
2013-08-20 10:55:00,79.9,66.6,29.97,SW,223,3.0,10.0,64,0.00,,,0.00,Wunderground v.1.13,2013-08-20 15:55:00,
2013-08-20 11:05:00,80.3,66.1,29.97,SSW,207,4.0,11.0,62,0.00,,,0.00,Wunderground v.1.13,2013-08-20 16:05:00,
2013-08-20 11:10:00,80.7,66.5,29.97,SSE,168,3.0,3.0,62,0.00,,,0.00,Wunderground v.1.13,2013-08-20 16:10:00,
2013-08-20 11:20:00,81.2,65.5,29.97,South,169,2.0,11.0,59,0.00,,,0.00,Wunderground v.1.13,2013-08-20 16:20:00,
2013-08-20 11:25:00,81.4,66.7,29.97,South,185,2.0,11.0,61,0.00,,,0.00,Wunderground v.1.13,2013-08-20 16:25:00,
2013-08-20 11:35:00,81.6,66.4,29.97,South,184,3.0,12.0,60,0.00,,,0.00,Wunderground v.1.13,2013-08-20 16:35:00,
2013-08-20 11:45:00,81.8,66.1,29.97,South,177,3.0,12.0,59,0.00,,,0.00,Wunderground v.1.13,2013-08-20 16:45:00,
2013-08-20 12:00:00,82.8,66.0,29.96,South,184,3.0,3.0,57,0.00,,,0.00,Wunderground v.1.13,2013-08-20 17:00:00,
2013-08-20 12:05:00,82.2,64.9,29.96,SSW,202,5.0,5.0,56,0.00,,,0.00,Wunderground v.1.13,2013-08-20 17:05:00,
2013-08-20 12:15:00,82.6,64.8,29.96,SSW,202,3.0,3.0,55,0.00,,,0.00,Wunderground v.1.13,2013-08-20 17:15:00,
2013-08-20 12:25:00,82.6,64.8,29.96,South,186,6.0,11.0,55,0.00,,,0.00,Wunderground v.1.13,2013-08-20 17:25:00,
2013-08-20 12:30:00,82.6,64.8,29.96,SSW,195,5.0,5.0,55,0.00,,,0.00,Wunderground v.1.13,2013-08-20 17:30:00,
2013-08-20 12:35:00,83.0,65.2,29.96,SSW,199,3.0,3.0,55,0.00,,,0.00,Wunderground v.1.13,2013-08-20 17:35:00,
2013-08-20 12:45:00,83.6,65.2,29.95,SE,130,4.0,12.0,54,0.00,,,0.00,Wunderground v.1.13,2013-08-20 17:45:00,
2013-08-20 12:50:00,83.6,64.1,29.95,SSW,195,5.0,12.0,52,0.00,,,0.00,Wunderground v.1.13,2013-08-20 17:50:00,
2013-08-20 13:00:00,83.8,63.2,29.95,SSW,207,4.0,12.0,50,0.00,,,0.00,Wunderground v.1.13,2013-08-20 18:00:00,
2013-08-20 13:05:00,83.6,62.4,29.95,South,188,4.0,4.0,49,0.00,,,0.00,Wunderground v.1.13,2013-08-20 18:05:00,
2013-08-20 13:15:00,84.0,62.2,29.94,South,188,5.0,5.0,48,0.00,,,0.00,Wunderground v.1.13,2013-08-20 18:15:00,
2013-08-20 13:20:00,84.1,63.5,29.94,SSW,205,5.0,5.0,50,0.00,,,0.00,Wunderground v.1.13,2013-08-20 18:20:00,
2013-08-20 13:25:00,84.3,62.5,29.94,South,186,4.0,14.0,48,0.00,,,0.00,Wunderground v.1.13,2013-08-20 18:25:00,
2013-08-20 13:30:00,84.3,62.5,29.94,SSW,199,5.0,14.0,48,0.00,,,0.00,Wunderground v.1.13,2013-08-20 18:30:00,
2013-08-20 13:35:00,84.5,61.4,29.94,SSE,156,5.0,19.0,46,0.00,,,0.00,Wunderground v.1.13,2013-08-20 18:35:00,
2013-08-20 13:45:00,85.3,61.6,29.93,South,175,2.0,2.0,45,0.00,,,0.00,Wunderground v.1.13,2013-08-20 18:45:00,
2013-08-20 13:55:00,85.7,61.3,29.93,SSE,155,3.0,3.0,44,0.00,,,0.00,Wunderground v.1.13,2013-08-20 18:55:00,
2013-08-20 14:00:00,85.9,62.1,29.93,South,183,3.0,19.0,45,0.00,,,0.00,Wunderground v.1.13,2013-08-20 19:00:00,
2013-08-20 14:05:00,86.3,61.2,29.93,South,175,3.0,13.0,43,0.00,,,0.00,Wunderground v.1.13,2013-08-20 19:05:00,
2013-08-20 14:15:00,86.1,61.6,29.93,South,175,3.0,3.0,44,0.00,,,0.00,Wunderground v.1.13,2013-08-20 19:15:00,
2013-08-20 14:20:00,85.9,60.8,29.93,SSW,202,3.0,13.0,43,0.00,,,0.00,Wunderground v.1.13,2013-08-20 19:20:00,
2013-08-20 14:30:00,86.1,61.6,29.93,South,178,3.0,3.0,44,0.00,,,0.00,Wunderground v.1.13,2013-08-20 19:30:00,
2013-08-20 14:35:00,86.3,61.2,29.93,SSW,193,3.0,3.0,43,0.00,,,0.00,Wunderground v.1.13,2013-08-20 19:35:00,
2013-08-20 14:45:00,85.9,61.5,29.93,SW,234,3.0,3.0,44,0.00,,,0.00,Wunderground v.1.13,2013-08-20 19:45:00,
2013-08-20 14:50:00,86.1,61.6,29.93,SW,229,3.0,3.0,44,0.00,,,0.00,Wunderground v.1.13,2013-08-20 19:50:00,
2013-08-20 14:55:00,86.1,59.0,29.93,SE,146,4.0,10.0,40,0.00,,,0.00,Wunderground v.1.13,2013-08-20 19:55:00,
2013-08-20 15:05:00,85.9,60.8,29.93,SSW,192,3.0,3.0,43,0.00,,,0.00,Wunderground v.1.13,2013-08-20 20:05:00,
2013-08-20 15:15:00,85.9,60.8,29.92,South,188,3.0,3.0,43,0.00,,,0.00,Wunderground v.1.13,2013-08-20 20:15:00,
2013-08-20 15:20:00,85.9,60.8,29.92,SW,229,4.0,13.0,43,0.00,,,0.00,Wunderground v.1.13,2013-08-20 20:20:00,
2013-08-20 15:30:00,85.5,61.1,29.91,SE,130,4.0,4.0,44,0.00,,,0.00,Wunderground v.1.13,2013-08-20 20:30:00,
2013-08-20 15:40:00,85.9,62.1,29.91,SSE,148,2.0,14.0,45,0.00,,,0.00,Wunderground v.1.13,2013-08-20 20:40:00,
2013-08-20 15:45:00,85.9,61.5,29.91,SSW,206,4.0,14.0,44,0.00,,,0.00,Wunderground v.1.13,2013-08-20 20:45:00,
2013-08-20 15:55:00,86.3,61.8,29.91,SSW,194,2.0,2.0,44,0.00,,,0.00,Wunderground v.1.13,2013-08-20 20:55:00,
2013-08-20 16:00:00,86.3,62.5,29.91,South,173,3.0,14.0,45,0.00,,,0.00,Wunderground v.1.13,2013-08-20 21:00:00,
2013-08-20 16:05:00,85.7,62.5,29.91,South,182,3.0,14.0,46,0.00,,,0.00,Wunderground v.1.13,2013-08-20 21:05:00,
2013-08-20 16:15:00,84.7,61.0,29.91,SSE,158,3.0,14.0,45,0.00,,,0.00,Wunderground v.1.13,2013-08-20 21:15:00,
2013-08-20 16:20:00,84.5,61.4,29.91,SSW,200,6.0,6.0,46,0.00,,,0.00,Wunderground v.1.13,2013-08-20 21:20:00,
2013-08-20 16:30:00,84.7,61.6,29.91,South,181,5.0,5.0,46,0.00,,,0.00,Wunderground v.1.13,2013-08-20 21:30:00,
2013-08-20 16:35:00,84.7,61.6,29.91,SSW,204,4.0,4.0,46,0.00,,,0.00,Wunderground v.1.13,2013-08-20 21:35:00,
2013-08-20 16:45:00,84.0,62.2,29.91,SSW,206,2.0,2.0,48,0.00,,,0.00,Wunderground v.1.13,2013-08-20 21:45:00,
2013-08-20 16:50:00,84.1,62.3,29.91,South,174,1.0,1.0,48,0.00,,,0.00,Wunderground v.1.13,2013-08-20 21:50:00,
2013-08-20 16:55:00,84.1,62.3,29.91,South,176,2.0,2.0,48,0.00,,,0.00,Wunderground v.1.13,2013-08-20 21:55:00,
2013-08-20 17:00:00,84.0,62.2,29.91,SSW,202,3.0,3.0,48,0.00,,,0.00,Wunderground v.1.13,2013-08-20 22:00:00,
2013-08-20 17:05:00,84.0,62.8,29.91,SSW,202,2.0,2.0,49,0.00,,,0.00,Wunderground v.1.13,2013-08-20 22:05:00,
2013-08-20 17:15:00,83.6,62.4,29.91,South,186,2.0,2.0,49,0.00,,,0.00,Wunderground v.1.13,2013-08-20 22:15:00,
2013-08-20 17:25:00,83.4,62.2,29.91,South,188,3.0,12.0,49,0.00,,,0.00,Wunderground v.1.13,2013-08-20 22:25:00,
2013-08-20 17:30:00,83.4,62.2,29.91,SSW,192,3.0,12.0,49,0.00,,,0.00,Wunderground v.1.13,2013-08-20 22:30:00,
2013-08-20 17:35:00,83.2,62.1,29.91,South,189,2.0,2.0,49,0.00,,,0.00,Wunderground v.1.13,2013-08-20 22:35:00,
2013-08-20 17:40:00,83.0,61.9,29.91,South,177,4.0,4.0,49,0.00,,,0.00,Wunderground v.1.13,2013-08-20 22:40:00,
2013-08-20 17:50:00,82.6,62.1,29.91,South,171,4.0,12.0,50,0.00,,,0.00,Wunderground v.1.13,2013-08-20 22:50:00,
2013-08-20 17:55:00,82.4,62.5,29.91,SSW,193,4.0,4.0,51,0.00,,,0.00,Wunderground v.1.13,2013-08-20 22:55:00,
2013-08-20 18:05:00,82.2,62.3,29.91,SW,217,2.0,11.0,51,0.00,,,0.00,Wunderground v.1.13,2013-08-20 23:05:00,
2013-08-20 18:15:00,82.0,62.6,29.91,SSW,208,1.0,11.0,52,0.00,,,0.00,Wunderground v.1.13,2013-08-20 23:15:00,
2013-08-20 18:25:00,81.8,61.9,29.91,South,184,1.0,11.0,51,0.00,,,0.00,Wunderground v.1.13,2013-08-20 23:25:00,
2013-08-20 18:30:00,81.8,62.5,29.91,South,186,2.0,2.0,52,0.00,,,0.00,Wunderground v.1.13,2013-08-20 23:30:00,
2013-08-20 18:40:00,81.4,62.6,29.91,South,189,0.0,10.0,53,0.00,,,0.00,Wunderground v.1.13,2013-08-20 23:40:00,
2013-08-20 18:45:00,81.2,62.4,29.91,South,186,0.0,10.0,53,0.00,,,0.00,Wunderground v.1.13,2013-08-20 23:45:00,
2013-08-20 18:50:00,81.1,62.3,29.91,South,186,0.0,10.0,53,0.00,,,0.00,Wunderground v.1.13,2013-08-20 23:50:00,
2013-08-20 18:55:00,81.1,62.3,29.91,South,186,0.0,10.0,53,0.00,,,0.00,Wunderground v.1.13,2013-08-20 23:55:00,
2013-08-20 19:05:00,80.7,62.5,29.91,South,188,0.0,8.0,54,0.00,,,0.00,Wunderground v.1.13,2013-08-21 00:05:00,
2013-08-20 19:15:00,80.3,63.2,29.91,South,188,0.0,8.0,56,0.00,,,0.00,Wunderground v.1.13,2013-08-21 00:15:00,
2013-08-20 19:20:00,79.9,62.8,29.91,South,188,0.0,8.0,56,0.00,,,0.00,Wunderground v.1.13,2013-08-21 00:20:00,
2013-08-20 19:25:00,79.4,62.8,29.91,South,188,0.0,8.0,57,0.00,,,0.00,Wunderground v.1.13,2013-08-21 00:25:00,
2013-08-20 19:35:00,78.8,63.3,29.90,South,180,0.0,5.0,59,0.00,,,0.00,Wunderground v.1.13,2013-08-21 00:35:00,
2013-08-20 19:40:00,78.5,63.9,29.90,South,178,0.0,5.0,61,0.00,,,0.00,Wunderground v.1.13,2013-08-21 00:40:00,
2013-08-20 19:45:00,78.1,64.5,29.90,South,173,0.0,5.0,63,0.00,,,0.00,Wunderground v.1.13,2013-08-21 00:45:00,
2013-08-20 19:55:00,77.4,64.7,29.90,South,171,0.0,5.0,65,0.00,,,0.00,Wunderground v.1.13,2013-08-21 00:55:00,
2013-08-20 20:00:00,77.2,65.0,29.90,South,170,0.0,5.0,66,0.00,,,0.00,Wunderground v.1.13,2013-08-21 01:00:00,
2013-08-20 20:05:00,76.8,65.0,29.90,SSE,167,0.0,5.0,67,0.00,,,0.00,Wunderground v.1.13,2013-08-21 01:05:00,
2013-08-20 20:15:00,76.3,65.0,29.91,SSE,167,0.0,5.0,68,0.00,,,0.00,Wunderground v.1.13,2013-08-21 01:15:00,
2013-08-20 20:20:00,76.0,65.1,29.91,SSE,167,0.0,5.0,69,0.00,,,0.00,Wunderground v.1.13,2013-08-21 01:20:00,
2013-08-20 20:30:00,75.4,64.9,29.91,SSE,167,0.0,5.0,70,0.00,,,0.00,Wunderground v.1.13,2013-08-21 01:30:00,
2013-08-20 20:35:00,75.3,64.8,29.91,SSE,167,0.0,5.0,70,0.00,,,0.00,Wunderground v.1.13,2013-08-21 01:35:00,
2013-08-20 20:40:00,75.1,65.1,29.91,SSE,167,0.0,5.0,71,0.00,,,0.00,Wunderground v.1.13,2013-08-21 01:40:00,
2013-08-20 20:50:00,74.9,65.3,29.91,SSE,166,0.0,5.0,72,0.00,,,0.00,Wunderground v.1.13,2013-08-21 01:50:00,
2013-08-20 20:55:00,74.7,65.1,29.91,SSE,165,0.0,5.0,72,0.00,,,0.00,Wunderground v.1.13,2013-08-21 01:55:00,
2013-08-20 21:00:00,74.6,65.0,29.92,SE,136,0.0,5.0,72,0.00,,,0.00,Wunderground v.1.13,2013-08-21 02:00:00,
2013-08-20 21:05:00,74.4,64.8,29.92,SE,136,0.0,0.0,72,0.00,,,0.00,Wunderground v.1.13,2013-08-21 02:05:00,
2013-08-20 21:15:00,74.2,65.0,29.92,SE,142,0.0,0.0,73,0.00,,,0.00,Wunderground v.1.13,2013-08-21 02:15:00,
2013-08-20 21:20:00,74.0,64.8,29.92,SE,142,0.0,0.0,73,0.00,,,0.00,Wunderground v.1.13,2013-08-21 02:20:00,
2013-08-20 21:30:00,73.7,64.9,29.92,SE,142,0.0,0.0,74,0.00,,,0.00,Wunderground v.1.13,2013-08-21 02:30:00,
2013-08-20 21:40:00,73.5,64.7,29.92,SE,135,0.0,7.0,74,0.00,,,0.00,Wunderground v.1.13,2013-08-21 02:40:00,
2013-08-20 21:50:00,73.2,64.8,29.92,SE,136,0.0,7.0,75,0.00,,,0.00,Wunderground v.1.13,2013-08-21 02:50:00,
2013-08-20 21:55:00,73.0,64.6,29.92,SE,136,0.0,7.0,75,0.00,,,0.00,Wunderground v.1.13,2013-08-21 02:55:00,
2013-08-20 22:05:00,72.7,64.7,29.92,SE,136,0.0,1.0,76,0.00,,,0.00,Wunderground v.1.13,2013-08-21 03:05:00,
2013-08-20 22:15:00,72.5,64.9,29.92,SE,137,0.0,1.0,77,0.00,,,0.00,Wunderground v.1.13,2013-08-21 03:15:00,
2013-08-20 22:25:00,72.1,64.5,29.92,SE,133,0.0,1.0,77,0.00,,,0.00,Wunderground v.1.13,2013-08-21 03:25:00,
2013-08-20 22:35:00,71.8,64.6,29.92,SE,134,0.0,5.0,78,0.00,,,0.00,Wunderground v.1.13,2013-08-21 03:35:00,
2013-08-20 22:45:00,71.6,64.7,29.92,SE,134,0.0,5.0,79,0.00,,,0.00,Wunderground v.1.13,2013-08-21 03:45:00,
2013-08-20 22:50:00,71.5,64.6,29.92,SE,134,0.0,5.0,79,0.00,,,0.00,Wunderground v.1.13,2013-08-21 03:50:00,
2013-08-20 22:55:00,71.3,64.4,29.92,SE,134,0.0,5.0,79,0.00,,,0.00,Wunderground v.1.13,2013-08-21 03:55:00,
2013-08-20 23:05:00,71.1,64.6,29.92,SE,134,0.0,1.0,80,0.00,,,0.00,Wunderground v.1.13,2013-08-21 04:05:00,
2013-08-20 23:10:00,70.9,64.4,29.92,SE,134,0.0,1.0,80,0.00,,,0.00,Wunderground v.1.13,2013-08-21 04:10:00,
2013-08-20 23:15:00,70.9,64.4,29.92,SE,134,0.0,1.0,80,0.00,,,0.00,Wunderground v.1.13,2013-08-21 04:15:00,
2013-08-20 23:25:00,70.8,64.3,29.92,SE,134,0.0,1.0,80,0.00,,,0.00,Wunderground v.1.13,2013-08-21 04:25:00,
2013-08-20 23:35:00,70.4,64.3,29.92,SE,134,0.0,2.0,81,0.00,,,0.00,Wunderground v.1.13,2013-08-21 04:35:00,
2013-08-20 23:45:00,70.4,64.3,29.92,SE,134,0.0,2.0,81,0.00,,,0.00,Wunderground v.1.13,2013-08-21 04:45:00,
2013-08-20 23:50:00,70.4,64.3,29.92,SE,136,0.0,6.0,81,0.00,,,0.00,Wunderground v.1.13,2013-08-21 04:50:00,
2013-08-20 23:55:00,70.4,64.3,29.92,SE,136,0.0,2.0,81,0.00,,,0.00,Wunderground v.1.13,2013-08-21 04:55:00,